Pagrindinis puslapis
METAR-TAF:

METAR-TAF

Oro uostai :

Nuakšotas, Mauritanija

platuma: 18-18-36N, ilguma: 015-58-11W, Aukštis: 3 m

Dabartinis oras

Ataskaita buvo paskelbta 44 minutes, ne 11:30 UTC
Vėjas 9 kt iš Šiaurės/Šiaurės Rytų
Temperatūra 33°C
Drėgmė 44%
Slėgis 1013 hPa
Matomumas: 6000 m

METAR: GQNO 161130Z 02009KT 6000 NSC 33/19 Q1013 NOSIG

Laikas: 12:14 (12:14 UTC)

Prognozė

Ataskaita buvo paskelbta 54 minutes, ne 11:20 UTC
Prognozė galioja nuo 16 metu 12 UTC su 17 metu 18 UTC
Vėjas 12 kt iš Šiaurės/Šiaurės Rytų
Matomumas: 6000 m
Tapsmas
nuo 16 metu 13 UTC su 16 metu 15 UTC
Vėjas 14 kt iš Šiaurės Vakarų
Tapsmas
nuo 17 metu 07 UTC su 17 metu 11 UTC
Vėjas 15 kt iš Rytų/Šiaurės Rytų
Matomumas: 4000 m
Dulkes pustymas
Tapsmas
nuo 17 metu 17 UTC su 17 metu 20 UTC
Vėjas 12 kt iš Šiaurės/Šiaurės Vakarų
Matomumas: 6000 m

TAF: GQNO 161120Z 1612/1718 02012KT 6000 NSC BECMG 1613/1615 32014KT BECMG 1707/1711 07015KT 4000 BLDU BECMG 1717/1720 33012KT 6000 NSW

Orai ataskaitas ir orų prognozės (METAR, TAF).

turimą stotys yra geltonos ir raudonos taškus žemėlapyje.

Perkelti pele per norėdami pamatyti stoties vardą.

Tada spustelėkite, norėdami matyti oro stebėjimo ir prognozės.

Norėdami pakeisti žemėlapį: spustelėkite ant žalios mygtukų su juodo kryžiaus žemyn,; žalią mygtuką su brūkšneliu, jei norite nutolinti; arba žalių rodyklių gretimoms žemėlapius.


METAR-TAF: